createdAt,value
2018-12-08T00:04:12.645Z,98866.00
2018-12-08T00:15:43.648Z,98879.00
2018-12-08T00:24:32.830Z,98872.00
2018-12-08T00:34:45.990Z,98897.00
2018-12-08T00:49:45.167Z,98902.00
2018-12-08T01:07:33.405Z,98926.00
2018-12-08T01:10:11.132Z,98935.00
2018-12-08T01:18:59.398Z,98946.00
2018-12-08T01:36:26.059Z,98954.00
2018-12-08T01:39:10.225Z,98959.00
2018-12-08T01:53:43.853Z,98968.00
2018-12-08T01:59:14.994Z,98976.00
2018-12-08T02:05:17.152Z,98978.00
2018-12-08T02:11:24.947Z,98985.00
2018-12-08T02:39:20.561Z,98972.00
2018-12-08T02:56:54.499Z,98962.00
2018-12-08T02:59:53.430Z,98966.00
2018-12-08T03:08:28.272Z,98968.00
2018-12-08T03:17:25.942Z,98960.00
2018-12-08T03:23:58.212Z,98968.00
2018-12-08T03:26:31.207Z,98968.00
2018-12-08T03:36:12.179Z,98967.00
2018-12-08T04:00:08.024Z,98949.00
2018-12-08T04:02:38.714Z,98949.00
2018-12-08T04:11:10.880Z,98946.00
2018-12-08T04:14:06.768Z,98951.00
2018-12-08T04:16:37.387Z,98925.00
2018-12-08T04:19:42.110Z,98923.00
2018-12-08T04:22:25.147Z,98918.00
2018-12-08T04:37:09.605Z,98920.00
2018-12-08T04:40:07.800Z,98917.00
2018-12-08T05:33:46.244Z,98887.00
2018-12-08T05:45:08.966Z,98857.00
2018-12-08T06:03:22.200Z,98830.00
2018-12-08T06:20:04.433Z,98825.00
2018-12-08T06:28:48.875Z,98823.00
2018-12-08T06:34:18.791Z,98819.00
2018-12-08T07:22:12.830Z,98718.00
2018-12-08T07:35:08.741Z,98775.00
2018-12-08T07:37:39.825Z,98788.00
2018-12-08T08:40:12.434Z,98732.00
2018-12-08T08:46:02.452Z,98716.00
2018-12-08T08:48:35.993Z,98720.00
2018-12-08T09:13:53.433Z,98694.00
2018-12-08T09:22:48.168Z,98687.00
2018-12-08T09:34:48.995Z,98693.00
2018-12-08T09:40:43.086Z,98676.00
2018-12-08T09:43:29.652Z,98662.00
2018-12-08T09:46:00.017Z,98673.00
2018-12-08T09:51:30.261Z,98655.00
2018-12-08T09:54:01.273Z,98665.00
2018-12-08T10:05:50.657Z,98633.00
2018-12-08T10:14:33.415Z,98546.00
2018-12-08T10:17:05.342Z,98631.00
2018-12-08T10:29:18.757Z,98616.00
2018-12-08T10:31:49.940Z,98610.00
2018-12-08T10:34:19.987Z,98607.00
2018-12-08T10:39:51.333Z,98597.00
2018-12-08T10:55:27.027Z,98578.00
2018-12-08T11:01:02.608Z,98568.00
2018-12-08T11:03:48.850Z,98569.00
2018-12-08T11:46:23.373Z,98541.00
2018-12-08T11:51:33.019Z,98535.00
2018-12-08T11:59:53.211Z,98534.00
2018-12-08T12:03:28.351Z,98534.00
2018-12-08T12:09:22.135Z,98513.00
2018-12-08T12:11:52.886Z,98521.00
2018-12-08T12:19:35.561Z,98507.00
2018-12-08T12:22:05.203Z,98510.00
2018-12-08T12:24:34.357Z,98492.00
2018-12-08T12:27:04.146Z,98503.00
2018-12-08T12:29:34.704Z,98500.00
2018-12-08T12:32:04.418Z,98501.00
2018-12-08T12:34:33.621Z,98499.00
2018-12-08T12:37:03.007Z,98504.00
2018-12-08T12:39:32.367Z,98490.00
2018-12-08T12:42:01.483Z,98497.00
2018-12-08T12:44:30.718Z,98481.00
2018-12-08T12:47:00.265Z,98496.00
2018-12-08T12:49:29.469Z,98487.00
2018-12-08T12:51:58.563Z,98481.00
2018-12-08T12:54:28.637Z,98482.00
2018-12-08T12:57:33.299Z,98477.00
2018-12-08T13:01:51.498Z,98480.00
2018-12-08T13:07:54.044Z,98482.00
2018-12-08T13:41:55.603Z,98482.00
2018-12-08T13:44:43.670Z,98480.00
2018-12-08T13:47:24.912Z,98487.00
2018-12-08T13:49:54.621Z,98487.00
2018-12-08T13:52:27.169Z,98479.00
2018-12-08T13:54:56.489Z,98482.00
2018-12-08T13:57:26.527Z,98473.00
2018-12-08T14:05:11.619Z,98473.00
2018-12-08T14:42:27.840Z,98469.00
2018-12-08T14:45:01.081Z,98468.00
2018-12-08T14:47:33.597Z,98476.00
2018-12-08T14:50:05.660Z,98471.00
2018-12-08T14:52:44.074Z,98472.00
2018-12-08T14:55:13.660Z,98460.00
2018-12-08T14:57:42.894Z,98456.00
2018-12-08T15:00:13.973Z,98468.00
2018-12-08T15:02:43.992Z,98451.00
2018-12-08T15:05:13.731Z,98464.00
2018-12-08T15:07:43.022Z,98457.00
2018-12-08T15:10:14.996Z,98457.00
2018-12-08T15:12:44.172Z,98457.00
2018-12-08T15:15:17.359Z,98455.00
2018-12-08T15:17:46.749Z,98456.00
2018-12-08T15:20:17.404Z,98455.00
2018-12-08T15:38:41.661Z,98464.00
2018-12-08T15:45:13.375Z,98451.00
2018-12-08T15:47:43.563Z,98465.00
2018-12-08T15:50:13.034Z,98453.00
2018-12-08T15:52:42.074Z,98483.00
2018-12-08T15:55:11.823Z,98464.00
2018-12-08T15:57:41.067Z,98473.00
2018-12-08T16:00:12.245Z,98475.00
2018-12-08T16:02:41.528Z,98478.00
2018-12-08T16:05:10.985Z,98466.00
2018-12-08T16:07:40.173Z,98478.00
2018-12-08T16:10:10.411Z,98473.00
2018-12-08T16:12:39.680Z,98473.00
2018-12-08T16:15:10.241Z,98475.00
2018-12-08T16:17:39.414Z,98459.00
2018-12-08T16:20:12.393Z,98471.00
2018-12-08T16:22:41.630Z,98462.00
2018-12-08T16:25:11.038Z,98461.00
2018-12-08T16:27:40.303Z,98472.00
2018-12-08T16:30:10.220Z,98466.00
2018-12-08T16:32:39.309Z,98461.00
2018-12-08T16:35:08.755Z,98469.00
2018-12-08T16:37:40.100Z,98476.00
2018-12-08T16:40:11.514Z,98473.00
2018-12-08T16:43:04.432Z,98465.00
2018-12-08T16:48:16.891Z,98461.00
2018-12-08T16:50:53.439Z,98466.00
2018-12-08T16:53:22.630Z,98463.00
2018-12-08T16:55:52.862Z,98477.00
2018-12-08T16:58:22.947Z,98477.00
2018-12-08T17:00:52.152Z,98473.00
2018-12-08T17:03:21.372Z,98472.00
2018-12-08T17:06:39.379Z,98456.00
2018-12-08T17:09:11.361Z,98473.00
2018-12-08T17:12:11.251Z,98470.00
2018-12-08T17:15:04.573Z,98466.00
2018-12-08T17:17:41.498Z,98474.00
2018-12-08T17:20:12.997Z,98475.00
2018-12-08T17:22:42.836Z,98467.00
2018-12-08T17:25:12.070Z,98466.00
2018-12-08T17:27:41.802Z,98459.00
2018-12-08T17:30:11.182Z,98471.00
2018-12-08T17:32:40.608Z,98464.00
2018-12-08T17:35:10.490Z,98468.00
2018-12-08T17:37:40.337Z,98463.00
2018-12-08T17:40:09.950Z,98463.00
2018-12-08T17:42:39.288Z,98454.00
2018-12-08T17:45:14.148Z,98458.00
2018-12-08T17:47:43.721Z,98459.00
2018-12-08T17:50:13.090Z,98444.00
2018-12-08T17:52:48.703Z,98452.00
2018-12-08T17:55:18.644Z,98437.00
2018-12-08T17:57:48.426Z,98457.00
2018-12-08T18:00:17.776Z,98440.00
2018-12-08T18:02:47.213Z,98436.00
2018-12-08T18:05:17.070Z,98439.00
2018-12-08T18:07:46.412Z,98433.00
2018-12-08T18:10:15.902Z,98435.00
2018-12-08T18:12:45.286Z,98434.00
2018-12-08T18:15:14.606Z,98425.00
2018-12-08T18:17:50.314Z,98426.00
2018-12-08T18:20:21.166Z,98420.00
2018-12-08T18:22:51.037Z,98431.00
2018-12-08T18:25:21.244Z,98426.00
2018-12-08T18:27:51.610Z,98396.00
2018-12-08T18:30:21.016Z,98415.00
2018-12-08T18:32:50.168Z,98410.00
2018-12-08T18:35:19.550Z,98411.00
2018-12-08T18:37:50.558Z,98392.00
2018-12-08T18:40:19.944Z,98398.00
2018-12-08T18:42:49.317Z,98401.00
2018-12-08T18:45:24.871Z,98389.00
2018-12-08T18:47:54.211Z,98264.00
2018-12-08T18:50:23.440Z,98391.00
2018-12-08T18:52:53.596Z,98384.00
2018-12-08T18:55:22.781Z,98383.00
2018-12-08T18:57:52.025Z,98387.00
2018-12-08T19:00:21.360Z,98377.00
2018-12-08T19:02:54.369Z,98382.00
2018-12-08T19:05:25.178Z,98383.00
2018-12-08T19:07:55.921Z,98381.00
2018-12-08T19:10:37.936Z,98376.00
2018-12-08T19:13:07.948Z,98377.00
2018-12-08T19:15:37.203Z,98370.00
2018-12-08T19:18:06.746Z,98374.00
2018-12-08T19:20:36.760Z,98369.00
2018-12-08T19:23:06.148Z,98378.00
2018-12-08T19:28:31.700Z,98358.00
2018-12-08T19:31:07.169Z,98368.00
2018-12-08T19:33:36.725Z,98373.00
2018-12-08T19:36:16.480Z,98359.00
2018-12-08T19:38:46.524Z,98357.00
2018-12-08T19:41:15.660Z,98358.00
2018-12-08T19:43:48.766Z,98348.00
2018-12-08T19:46:25.426Z,98343.00
2018-12-08T19:48:58.951Z,98334.00
2018-12-08T19:51:28.404Z,98335.00
2018-12-08T19:53:57.767Z,98326.00
2018-12-08T19:59:38.805Z,98330.00
2018-12-08T20:02:08.575Z,98320.00
2018-12-08T20:04:38.114Z,98316.00
2018-12-08T20:07:07.732Z,98295.00
2018-12-08T20:09:57.208Z,98310.00
2018-12-08T20:12:31.020Z,98308.00
2018-12-08T20:15:00.674Z,98298.00
2018-12-08T20:17:30.895Z,98288.00
2018-12-08T20:20:07.616Z,98289.00
2018-12-08T20:22:40.583Z,98275.00
2018-12-08T20:25:10.112Z,98271.00
2018-12-08T20:27:47.826Z,98261.00
2018-12-08T20:30:22.051Z,98249.00
2018-12-08T20:32:56.219Z,98247.00
2018-12-08T20:35:26.029Z,98247.00
2018-12-08T20:37:55.485Z,98241.00
2018-12-08T20:40:47.177Z,98234.00
2018-12-08T20:43:16.888Z,98226.00
2018-12-08T20:48:36.005Z,98208.00
2018-12-08T20:51:06.342Z,98218.00
2018-12-08T20:56:21.580Z,98197.00
2018-12-08T20:58:55.381Z,98192.00
2018-12-08T21:01:24.895Z,98184.00
2018-12-08T21:03:59.927Z,98225.00
2018-12-08T21:06:29.375Z,98185.00
2018-12-08T21:08:58.675Z,98171.00
2018-12-08T21:11:28.943Z,98174.00
2018-12-08T21:13:58.190Z,98167.00
2018-12-08T21:16:27.981Z,98155.00
2018-12-08T21:45:46.687Z,98080.00
2018-12-08T21:51:17.221Z,98068.00
2018-12-08T21:53:49.521Z,98088.00
2018-12-08T21:56:18.708Z,98060.00
2018-12-08T21:58:47.888Z,98053.00
2018-12-08T22:01:23.195Z,98041.00
2018-12-08T22:03:52.848Z,98025.00
2018-12-08T22:06:22.660Z,98022.00
2018-12-08T22:08:58.494Z,98017.00
2018-12-08T22:25:01.756Z,97961.00
